Time;durP1;ratioP1;P1;durP2;ratioP2;P2;SDS_P1;SDS_P2;PMS_P1;PMS_P2;Temp;Humidity;BMP_temperature;BMP_pressure;BME280_temperature;BME280_humidity;BME280_pressure;Samples;Min_cycle;Max_cycle;Signal;HPM_P1;HPM_P2
2023/03/25 00:01:55;;;;;;;15.27;3.40;;;;;;;;;;5133322;27;20108;-60
2023/03/25 00:04:26;;;;;;;15.57;3.17;;;;;;;;;;5129105;27;20093;-62
2023/03/25 00:06:54;;;;;;;13.15;2.75;;;;;;;;;;5134677;27;20107;-61
2023/03/25 00:09:20;;;;;;;16.40;3.35;;;;;;;;;;5134761;27;20051;-60
2023/03/25 00:11:49;;;;;;;14.30;2.85;;;;;;;;;;5137589;27;20321;-60
2023/03/25 00:14:16;;;;;;;14.82;3.58;;;;;;;;;;5136919;27;20039;-60
2023/03/25 00:16:47;;;;;;;12.38;2.97;;;;;;;;;;5135130;27;20135;-61
2023/03/25 00:19:14;;;;;;;12.60;2.63;;;;;;;;;;5137225;27;20083;-62
2023/03/25 00:21:43;;;;;;;16.60;3.67;;;;;;;;;;5140069;27;20108;-62
2023/03/25 00:24:11;;;;;;;14.38;3.40;;;;;;;;;;5134096;27;20129;-61
2023/03/25 00:26:41;;;;;;;12.23;3.30;;;;;;;;;;5139226;27;20074;-61
2023/03/25 00:29:07;;;;;;;13.18;3.67;;;;;;;;;;5135725;27;20091;-60
2023/03/25 00:31:33;;;;;;;16.02;3.15;;;;;;;;;;5136969;27;20043;-61
2023/03/25 00:33:59;;;;;;;13.32;3.00;;;;;;;;;;5139857;27;20047;-61
2023/03/25 00:36:25;;;;;;;10.45;2.88;;;;;;;;;;5136512;27;20065;-62
2023/03/25 00:38:51;;;;;;;12.30;3.05;;;;;;;;;;5139658;27;20043;-60
2023/03/25 00:41:21;;;;;;;10.80;2.72;;;;;;;;;;5140128;27;20039;-59
2023/03/25 00:43:47;;;;;;;11.52;2.97;;;;;;;;;;5137265;27;20462;-61
2023/03/25 00:46:13;;;;;;;13.05;3.45;;;;;;;;;;5133423;27;20370;-62
2023/03/25 00:48:40;;;;;;;15.88;3.42;;;;;;;;;;5136443;27;20047;-62
2023/03/25 00:51:08;;;;;;;15.90;3.97;;;;;;;;;;5137804;27;20078;-61
2023/03/25 00:53:35;;;;;;;17.00;3.72;;;;;;;;;;5134915;27;20501;-59
2023/03/25 00:56:01;;;;;;;16.80;4.05;;;;;;;;;;5130612;27;20047;-60
2023/03/25 00:58:28;;;;;;;15.70;2.97;;;;;;;;;;5139669;27;20039;-61
2023/03/25 01:00:55;;;;;;;13.02;2.90;;;;;;;;;;5137719;27;20535;-60
2023/03/25 01:03:22;;;;;;;21.85;4.20;;;;;;;;;;5130191;27;20066;-60
2023/03/25 01:05:49;;;;;;;11.63;3.00;;;;;;;;;;5131118;27;20047;-61
2023/03/25 01:08:16;;;;;;;18.50;3.83;;;;;;;;;;5132822;27;20121;-61
2023/03/25 01:10:42;;;;;;;17.45;3.75;;;;;;;;;;5131941;27;20190;-61
2023/03/25 01:13:09;;;;;;;12.75;3.78;;;;;;;;;;5134534;27;20416;-60
2023/03/25 01:15:35;;;;;;;16.90;3.78;;;;;;;;;;5132114;27;20393;-61
2023/03/25 01:18:01;;;;;;;19.20;3.72;;;;;;;;;;5137692;27;20114;-61
2023/03/25 01:20:27;;;;;;;14.88;4.18;;;;;;;;;;5131792;27;20123;-60
2023/03/25 01:22:53;;;;;;;19.92;3.67;;;;;;;;;;5134967;27;20049;-61
2023/03/25 01:25:19;;;;;;;13.77;3.13;;;;;;;;;;5134584;27;20063;-61
2023/03/25 01:27:45;;;;;;;20.42;3.53;;;;;;;;;;5142014;27;20087;-61
2023/03/25 01:30:11;;;;;;;17.70;4.88;;;;;;;;;;5131258;27;20047;-61
2023/03/25 01:32:37;;;;;;;18.95;4.32;;;;;;;;;;5136203;27;20756;-60
2023/03/25 01:35:05;;;;;;;18.25;4.22;;;;;;;;;;5136630;27;20082;-60
2023/03/25 01:37:32;;;;;;;16.42;4.13;;;;;;;;;;5132121;27;20038;-62
2023/03/25 01:39:59;;;;;;;22.05;4.20;;;;;;;;;;5139411;27;20042;-62
2023/03/25 01:42:25;;;;;;;17.83;3.28;;;;;;;;;;5138070;27;20494;-62
2023/03/25 01:44:51;;;;;;;14.15;3.17;;;;;;;;;;5136597;27;20520;-60
2023/03/25 01:47:17;;;;;;;12.98;3.15;;;;;;;;;;5137713;27;20081;-62
2023/03/25 01:49:44;;;;;;;23.98;4.43;;;;;;;;;;5137822;27;20049;-62
2023/03/25 01:52:10;;;;;;;12.88;2.92;;;;;;;;;;5132574;27;20516;-60
2023/03/25 01:54:37;;;;;;;20.67;4.53;;;;;;;;;;5136348;27;20137;-61
2023/03/25 01:57:04;;;;;;;19.42;3.78;;;;;;;;;;5118925;27;20068;-61
2023/03/25 01:59:30;;;;;;;14.75;3.85;;;;;;;;;;5135083;27;20047;-60
2023/03/25 02:01:57;;;;;;;15.18;3.45;;;;;;;;;;5138158;27;20039;-62
2023/03/25 02:04:37;;;;;;;20.40;4.07;;;;;;;;;;5137443;27;20122;-60
2023/03/25 02:07:06;;;;;;;22.15;4.18;;;;;;;;;;5139757;27;20405;-61
2023/03/25 02:09:33;;;;;;;16.70;3.70;;;;;;;;;;5136404;27;20082;-61
2023/03/25 02:11:59;;;;;;;19.95;3.95;;;;;;;;;;5134838;27;20622;-61
2023/03/25 02:14:26;;;;;;;23.70;4.70;;;;;;;;;;5136531;27;20057;-62
2023/03/25 02:16:56;;;;;;;18.85;4.18;;;;;;;;;;5132636;27;20039;-60
2023/03/25 02:19:22;;;;;;;21.58;3.95;;;;;;;;;;5136662;27;20057;-61
2023/03/25 02:21:57;;;;;;;20.42;3.88;;;;;;;;;;5135911;27;20402;-60
2023/03/25 02:24:42;;;;;;;23.60;4.53;;;;;;;;;;5135841;27;20118;-60
2023/03/25 02:27:27;;;;;;;19.48;3.25;;;;;;;;;;5136582;27;20054;-60
2023/03/25 02:29:53;;;;;;;21.95;4.65;;;;;;;;;;5134385;27;20048;-60
2023/03/25 02:32:22;;;;;;;22.50;4.85;;;;;;;;;;5139949;27;20030;-62
2023/03/25 02:35:06;;;;;;;17.02;3.72;;;;;;;;;;5133955;27;20055;-61
2023/03/25 02:37:48;;;;;;;22.15;4.90;;;;;;;;;;5132199;27;20070;-60
2023/03/25 02:40:22;;;;;;;18.35;4.40;;;;;;;;;;5138263;27;20049;-61
2023/03/25 02:42:51;;;;;;;20.27;4.57;;;;;;;;;;5139598;27;20043;-60
2023/03/25 02:45:24;;;;;;;26.92;4.63;;;;;;;;;;5134935;27;20039;-60
2023/03/25 02:47:52;;;;;;;27.23;6.15;;;;;;;;;;5130881;27;20082;-61
2023/03/25 02:50:23;;;;;;;20.92;4.43;;;;;;;;;;5136164;27;20089;-60
2023/03/25 02:52:51;;;;;;;18.08;4.72;;;;;;;;;;5138253;27;20043;-62
2023/03/25 02:55:19;;;;;;;24.02;4.65;;;;;;;;;;5138973;27;20039;-62
2023/03/25 02:57:46;;;;;;;21.05;4.38;;;;;;;;;;5134796;27;20078;-61
2023/03/25 03:00:14;;;;;;;25.33;5.13;;;;;;;;;;5136852;27;20046;-60
2023/03/25 03:02:49;;;;;;;27.05;6.18;;;;;;;;;;5134867;27;20050;-62
2023/03/25 03:05:23;;;;;;;17.92;4.20;;;;;;;;;;5141614;27;20165;-61
2023/03/25 03:07:51;;;;;;;18.58;4.70;;;;;;;;;;5135778;27;20530;-62
2023/03/25 03:10:26;;;;;;;18.27;4.05;;;;;;;;;;5137709;27;20175;-62
2023/03/25 03:13:07;;;;;;;21.45;4.15;;;;;;;;;;5137280;27;20133;-61
2023/03/25 03:15:33;;;;;;;21.92;4.25;;;;;;;;;;5135644;27;20054;-61
2023/03/25 03:18:13;;;;;;;19.10;5.25;;;;;;;;;;5133518;27;20047;-60
2023/03/25 03:20:49;;;;;;;17.88;3.95;;;;;;;;;;5132972;27;20043;-61
2023/03/25 03:23:32;;;;;;;17.98;4.00;;;;;;;;;;5130129;27;20102;-61
2023/03/25 03:26:01;;;;;;;19.52;3.20;;;;;;;;;;5139339;27;20078;-62
2023/03/25 03:28:49;;;;;;;18.27;5.68;;;;;;;;;;5134697;27;20501;-61
2023/03/25 03:31:35;;;;;;;18.42;3.55;;;;;;;;;;5137454;27;20539;-62
2023/03/25 03:34:05;;;;;;;26.67;4.80;;;;;;;;;;5135185;27;20035;-61
2023/03/25 03:36:34;;;;;;;16.00;3.63;;;;;;;;;;5136229;27;20047;-60
2023/03/25 03:39:12;;;;;;;20.95;4.60;;;;;;;;;;5137816;27;20050;-61
2023/03/25 03:41:40;;;;;;;22.00;4.38;;;;;;;;;;5140347;27;20072;-60
2023/03/25 03:44:08;;;;;;;18.83;5.63;;;;;;;;;;5133522;27;20046;-62
2023/03/25 03:46:38;;;;;;;14.65;3.72;;;;;;;;;;5131824;27;20513;-62
2023/03/25 03:49:06;;;;;;;25.77;5.18;;;;;;;;;;5137529;27;20046;-62
2023/03/25 03:51:44;;;;;;;17.45;4.70;;;;;;;;;;5114189;27;20084;-62
2023/03/25 03:54:16;;;;;;;15.45;3.78;;;;;;;;;;5133446;27;20046;-61
2023/03/25 03:56:48;;;;;;;17.60;4.03;;;;;;;;;;5135984;27;20038;-62
2023/03/25 03:59:24;;;;;;;15.07;3.50;;;;;;;;;;5138400;27;20043;-61
2023/03/25 04:01:52;;;;;;;16.80;4.28;;;;;;;;;;5140304;27;20047;-60
2023/03/25 04:04:20;;;;;;;16.23;3.75;;;;;;;;;;5137074;27;20700;-61
2023/03/25 04:06:57;;;;;;;17.77;4.80;;;;;;;;;;5134172;27;20088;-60
2023/03/25 04:09:40;;;;;;;17.25;3.80;;;;;;;;;;5119803;27;20055;-62
2023/03/25 04:12:10;;;;;;;16.27;4.22;;;;;;;;;;5128796;27;20058;-62
2023/03/25 04:14:38;;;;;;;15.23;3.58;;;;;;;;;;5132081;27;20050;-61
2023/03/25 04:17:04;;;;;;;16.52;3.25;;;;;;;;;;5130685;27;20039;-62
2023/03/25 04:19:32;;;;;;;21.40;3.83;;;;;;;;;;5131169;27;20051;-61
2023/03/25 04:22:00;;;;;;;16.70;3.67;;;;;;;;;;5132159;27;20043;-60
2023/03/25 04:24:30;;;;;;;17.27;4.15;;;;;;;;;;5133154;27;20036;-62
2023/03/25 04:26:56;;;;;;;20.48;4.05;;;;;;;;;;5134287;27;20393;-62
2023/03/25 04:29:24;;;;;;;17.77;4.47;;;;;;;;;;5134811;27;20169;-62
2023/03/25 04:31:53;;;;;;;27.13;4.85;;;;;;;;;;5130359;27;20126;-61
2023/03/25 04:34:20;;;;;;;20.05;5.53;;;;;;;;;;5141956;27;20498;-60
2023/03/25 04:36:48;;;;;;;20.05;4.18;;;;;;;;;;5134233;27;20069;-61
2023/03/25 04:39:16;;;;;;;19.08;4.47;;;;;;;;;;5131184;27;20070;-60
2023/03/25 04:41:43;;;;;;;16.98;3.50;;;;;;;;;;5139933;27;20061;-62
2023/03/25 04:44:09;;;;;;;21.52;4.50;;;;;;;;;;5134768;27;20127;-60
2023/03/25 04:46:36;;;;;;;18.50;4.50;;;;;;;;;;5134301;27;20130;-61
2023/03/25 04:49:04;;;;;;;23.80;4.50;;;;;;;;;;5135650;27;20050;-61
2023/03/25 04:51:31;;;;;;;19.85;4.30;;;;;;;;;;5137567;27;20133;-60
2023/03/25 04:53:58;;;;;;;21.27;4.85;;;;;;;;;;5135622;27;20047;-62
2023/03/25 04:56:24;;;;;;;16.75;4.10;;;;;;;;;;5132597;27;20043;-61
2023/03/25 04:58:50;;;;;;;14.85;3.83;;;;;;;;;;5140481;27;20064;-60
2023/03/25 05:01:29;;;;;;;17.40;4.65;;;;;;;;;;5138532;27;20047;-62
2023/03/25 05:04:03;;;;;;;18.83;4.65;;;;;;;;;;5136723;27;20047;-62
2023/03/25 05:06:29;;;;;;;16.55;4.60;;;;;;;;;;5138016;27;20047;-61
2023/03/25 05:08:55;;;;;;;16.60;3.55;;;;;;;;;;5139053;27;20055;-62
2023/03/25 05:11:21;;;;;;;19.48;4.78;;;;;;;;;;5121288;27;20103;-62
2023/03/25 05:13:47;;;;;;;16.77;3.97;;;;;;;;;;5142061;27;20043;-60
2023/03/25 05:16:13;;;;;;;22.45;5.18;;;;;;;;;;5135802;27;20138;-61
2023/03/25 05:18:39;;;;;;;16.08;3.38;;;;;;;;;;5136384;27;20125;-60
2023/03/25 05:21:05;;;;;;;19.88;4.38;;;;;;;;;;5137888;27;20343;-61
2023/03/25 05:23:32;;;;;;;21.92;5.28;;;;;;;;;;5137117;27;20043;-60
2023/03/25 05:25:58;;;;;;;20.58;4.90;;;;;;;;;;5137511;27;20397;-62
2023/03/25 05:28:24;;;;;;;16.42;3.28;;;;;;;;;;5135254;27;20064;-61
2023/03/25 05:30:50;;;;;;;22.67;4.80;;;;;;;;;;5135770;27;20078;-61
2023/03/25 05:33:17;;;;;;;20.33;5.20;;;;;;;;;;5135579;27;20964;-61
2023/03/25 05:35:44;;;;;;;19.88;5.03;;;;;;;;;;5138330;27;20043;-62
2023/03/25 05:38:17;;;;;;;18.83;4.25;;;;;;;;;;5137006;27;20050;-61
2023/03/25 05:40:45;;;;;;;18.08;4.05;;;;;;;;;;5135518;27;20412;-61
2023/03/25 05:43:11;;;;;;;13.52;4.05;;;;;;;;;;5134216;27;20057;-60
2023/03/25 05:45:37;;;;;;;18.50;4.78;;;;;;;;;;5139793;27;20056;-62
2023/03/25 05:48:04;;;;;;;21.75;4.60;;;;;;;;;;5137499;27;20047;-60
2023/03/25 05:50:30;;;;;;;24.50;4.75;;;;;;;;;;5137876;27;20106;-61
2023/03/25 05:52:56;;;;;;;21.95;5.13;;;;;;;;;;5131003;27;20051;-62
2023/03/25 05:55:22;;;;;;;22.27;4.35;;;;;;;;;;5137364;27;20064;-62
2023/03/25 05:57:49;;;;;;;21.27;4.65;;;;;;;;;;5135351;27;20041;-60
2023/03/25 06:00:17;;;;;;;23.15;5.90;;;;;;;;;;5139461;27;20046;-62
2023/03/25 06:02:43;;;;;;;23.10;5.97;;;;;;;;;;5134972;27;20057;-62
2023/03/25 06:05:12;;;;;;;22.15;3.75;;;;;;;;;;5130482;27;20071;-62
2023/03/25 06:07:41;;;;;;;18.83;5.13;;;;;;;;;;5136606;27;20135;-62
2023/03/25 06:10:07;;;;;;;28.33;5.43;;;;;;;;;;5136415;27;20149;-61
2023/03/25 06:12:37;;;;;;;23.20;4.97;;;;;;;;;;5135479;27;20118;-60
2023/03/25 06:15:04;;;;;;;23.80;4.90;;;;;;;;;;5134766;27;20473;-60
2023/03/25 06:17:32;;;;;;;21.08;4.30;;;;;;;;;;5143223;27;20539;-62
2023/03/25 06:19:59;;;;;;;17.70;4.20;;;;;;;;;;5135903;27;20121;-63
2023/03/25 06:22:25;;;;;;;20.20;4.68;;;;;;;;;;5138860;27;20047;-61
2023/03/25 06:24:51;;;;;;;22.00;5.80;;;;;;;;;;5136028;27;20431;-60
2023/03/25 06:27:18;;;;;;;18.40;2.85;;;;;;;;;;5132524;27;20066;-62
2023/03/25 06:29:45;;;;;;;19.70;5.15;;;;;;;;;;5142316;27;20047;-62
2023/03/25 06:32:12;;;;;;;12.95;3.67;;;;;;;;;;5138337;27;20059;-61
2023/03/25 06:34:41;;;;;;;17.90;4.50;;;;;;;;;;5133185;27;20046;-61
2023/03/25 06:37:07;;;;;;;15.73;3.60;;;;;;;;;;5134600;27;20055;-62
2023/03/25 06:39:36;;;;;;;21.58;4.60;;;;;;;;;;5135566;27;20047;-60
2023/03/25 06:42:02;;;;;;;16.30;3.65;;;;;;;;;;5135130;27;20050;-62
2023/03/25 06:44:28;;;;;;;19.30;4.18;;;;;;;;;;5133516;27;20138;-60
2023/03/25 06:46:54;;;;;;;18.10;3.58;;;;;;;;;;5134845;27;20130;-62
2023/03/25 06:49:20;;;;;;;18.85;4.55;;;;;;;;;;5138068;27;20050;-62
2023/03/25 06:51:47;;;;;;;25.17;4.47;;;;;;;;;;5139834;27;20061;-62
2023/03/25 06:54:13;;;;;;;20.63;4.93;;;;;;;;;;5135991;27;20051;-61
2023/03/25 06:56:39;;;;;;;17.42;4.10;;;;;;;;;;5134885;27;20043;-62
2023/03/25 06:59:05;;;;;;;17.92;3.92;;;;;;;;;;5135326;27;20047;-62
2023/03/25 07:01:32;;;;;;;17.50;3.65;;;;;;;;;;5134721;27;20070;-62
2023/03/25 07:03:58;;;;;;;19.63;3.80;;;;;;;;;;5134676;27;20074;-62
2023/03/25 07:06:24;;;;;;;17.52;4.43;;;;;;;;;;5138155;27;20089;-62
2023/03/25 07:08:50;;;;;;;20.52;4.65;;;;;;;;;;5134396;27;20059;-60
2023/03/25 07:11:19;;;;;;;12.98;3.22;;;;;;;;;;5132222;27;20042;-61
2023/03/25 07:13:45;;;;;;;14.48;3.67;;;;;;;;;;5131748;27;20043;-60
2023/03/25 07:16:11;;;;;;;10.32;3.28;;;;;;;;;;5133120;27;20046;-60
2023/03/25 07:18:39;;;;;;;21.15;4.13;;;;;;;;;;5136496;27;20054;-62
2023/03/25 07:21:05;;;;;;;11.02;3.85;;;;;;;;;;5137455;27;20050;-62
2023/03/25 07:23:31;;;;;;;8.10;2.22;;;;;;;;;;5134159;27;20047;-62
2023/03/25 07:25:57;;;;;;;13.00;2.47;;;;;;;;;;5132288;27;20126;-60
2023/03/25 07:28:23;;;;;;;10.82;2.45;;;;;;;;;;5116043;27;20500;-60
2023/03/25 07:30:49;;;;;;;17.13;3.90;;;;;;;;;;5135893;27;20070;-62
2023/03/25 07:33:15;;;;;;;14.85;2.92;;;;;;;;;;5134953;27;20078;-62
2023/03/25 07:35:41;;;;;;;10.52;2.88;;;;;;;;;;5132192;27;20050;-60
2023/03/25 07:38:08;;;;;;;21.23;4.25;;;;;;;;;;5134648;27;20222;-61
2023/03/25 07:40:34;;;;;;;17.35;3.80;;;;;;;;;;5135805;27;20054;-61
2023/03/25 07:43:01;;;;;;;15.02;3.58;;;;;;;;;;5132979;27;20047;-61
2023/03/25 07:45:27;;;;;;;16.17;3.35;;;;;;;;;;5137735;27;20039;-60
2023/03/25 07:47:53;;;;;;;15.93;3.33;;;;;;;;;;5135233;27;20088;-60
2023/03/25 07:50:20;;;;;;;16.13;3.40;;;;;;;;;;5136780;27;20046;-61
2023/03/25 07:52:47;;;;;;;13.95;2.90;;;;;;;;;;5114271;27;20497;-62
2023/03/25 07:55:13;;;;;;;11.45;3.22;;;;;;;;;;5132656;27;20050;-62
2023/03/25 07:57:43;;;;;;;13.88;3.38;;;;;;;;;;5129419;27;20086;-61
2023/03/25 08:00:10;;;;;;;10.93;3.08;;;;;;;;;;5133511;27;20046;-61
2023/03/25 08:02:36;;;;;;;16.55;2.97;;;;;;;;;;5137068;27;20435;-61
2023/03/25 08:05:02;;;;;;;11.15;3.25;;;;;;;;;;5134572;27;20576;-60
2023/03/25 08:07:28;;;;;;;14.45;2.97;;;;;;;;;;5134768;27;20537;-62
2023/03/25 08:09:54;;;;;;;11.65;2.80;;;;;;;;;;5135542;27;20051;-61
2023/03/25 08:12:20;;;;;;;13.07;2.35;;;;;;;;;;5132114;27;20436;-61
2023/03/25 08:14:46;;;;;;;21.88;2.67;;;;;;;;;;5136183;27;20541;-62
2023/03/25 08:17:12;;;;;;;14.18;2.50;;;;;;;;;;5133397;27;20093;-62
2023/03/25 08:19:38;;;;;;;11.98;2.53;;;;;;;;;;5131898;27;20047;-61
2023/03/25 08:22:04;;;;;;;12.52;2.58;;;;;;;;;;5136900;27;20046;-60
2023/03/25 08:24:31;;;;;;;14.10;3.65;;;;;;;;;;5132532;27;20557;-62
2023/03/25 08:26:59;;;;;;;16.52;3.35;;;;;;;;;;5134077;27;20490;-61
2023/03/25 08:29:26;;;;;;;11.57;2.42;;;;;;;;;;5140440;27;20043;-60
2023/03/25 08:31:52;;;;;;;16.45;3.78;;;;;;;;;;5136919;27;20043;-60
2023/03/25 08:34:19;;;;;;;14.48;3.38;;;;;;;;;;5145694;27;20062;-60
2023/03/25 08:36:45;;;;;;;18.95;3.50;;;;;;;;;;5140015;27;20053;-62
2023/03/25 08:39:11;;;;;;;11.60;2.90;;;;;;;;;;5139991;27;20081;-62
2023/03/25 08:41:38;;;;;;;14.52;2.42;;;;;;;;;;5140044;27;20064;-60
2023/03/25 08:44:04;;;;;;;10.45;2.60;;;;;;;;;;5138758;27;20568;-60
2023/03/25 08:46:31;;;;;;;7.78;2.15;;;;;;;;;;5139105;27;20063;-62
2023/03/25 08:48:57;;;;;;;10.77;3.08;;;;;;;;;;5141153;27;20086;-60
2023/03/25 08:51:23;;;;;;;15.25;3.88;;;;;;;;;;5136366;27;20053;-60
2023/03/25 08:53:49;;;;;;;14.90;3.60;;;;;;;;;;5143483;27;20811;-60
2023/03/25 08:56:16;;;;;;;13.68;3.38;;;;;;;;;;5134403;27;20051;-62
2023/03/25 08:58:42;;;;;;;15.27;3.70;;;;;;;;;;5141145;27;20042;-62
2023/03/25 09:01:08;;;;;;;13.07;3.05;;;;;;;;;;5136379;27;20200;-60
2023/03/25 09:03:36;;;;;;;20.42;4.10;;;;;;;;;;5135936;27;20096;-61
2023/03/25 09:06:06;;;;;;;14.13;3.05;;;;;;;;;;5141498;27;20125;-62
2023/03/25 09:08:32;;;;;;;19.25;4.00;;;;;;;;;;5137509;27;20050;-61
2023/03/25 09:10:58;;;;;;;19.27;4.18;;;;;;;;;;5137951;27;20043;-62
2023/03/25 09:13:24;;;;;;;11.20;2.92;;;;;;;;;;5140641;27;20043;-61
2023/03/25 09:15:51;;;;;;;15.85;3.63;;;;;;;;;;5136713;27;20050;-60
2023/03/25 09:18:17;;;;;;;8.70;2.28;;;;;;;;;;5139398;27;20071;-62
2023/03/25 09:20:47;;;;;;;11.27;2.92;;;;;;;;;;5140725;27;20390;-62
2023/03/25 09:23:14;;;;;;;24.50;3.53;;;;;;;;;;5138165;27;20095;-62
2023/03/25 09:25:40;;;;;;;7.38;2.08;;;;;;;;;;5141123;27;20849;-60
2023/03/25 09:28:06;;;;;;;11.57;2.78;;;;;;;;;;5138927;27;20064;-62
2023/03/25 09:30:32;;;;;;;17.65;3.53;;;;;;;;;;5136251;27;20043;-63
2023/03/25 09:32:59;;;;;;;12.77;2.65;;;;;;;;;;5143123;27;20095;-62
2023/03/25 09:35:25;;;;;;;10.77;3.10;;;;;;;;;;5136909;27;20050;-62
2023/03/25 09:37:51;;;;;;;16.45;3.33;;;;;;;;;;5133783;27;20054;-60
2023/03/25 09:40:19;;;;;;;15.50;3.10;;;;;;;;;;5144868;27;20046;-62
2023/03/25 09:43:11;;;;;;;11.32;3.15;;;;;;;;;;5137950;27;20043;-62
2023/03/25 09:45:41;;;;;;;15.43;3.45;;;;;;;;;;5095994;27;20604;-62
2023/03/25 09:48:22;;;;;;;14.75;3.10;;;;;;;;;;5140109;27;20448;-62
2023/03/25 09:50:49;;;;;;;12.63;3.15;;;;;;;;;;5146940;27;20493;-62
2023/03/25 09:53:24;;;;;;;11.18;2.85;;;;;;;;;;5142009;27;20031;-62
2023/03/25 09:55:50;;;;;;;13.45;3.45;;;;;;;;;;5143841;27;20052;-60
2023/03/25 09:58:26;;;;;;;9.68;2.55;;;;;;;;;;5141281;27;20046;-62
2023/03/25 10:01:15;;;;;;;13.13;2.97;;;;;;;;;;5133528;27;20126;-61
2023/03/25 10:03:54;;;;;;;16.73;3.60;;;;;;;;;;5089326;27;20572;-61
2023/03/25 10:06:21;;;;;;;14.98;3.47;;;;;;;;;;5147763;27;20311;-60
2023/03/25 10:09:06;;;;;;;12.10;2.85;;;;;;;;;;5146744;27;20095;-62
2023/03/25 10:11:50;;;;;;;13.63;3.38;;;;;;;;;;5141193;27;20049;-62
2023/03/25 10:14:20;;;;;;;11.18;3.25;;;;;;;;;;5131921;27;20044;-62
2023/03/25 10:16:56;;;;;;;12.32;2.45;;;;;;;;;;5148907;27;20082;-62
2023/03/25 10:19:28;;;;;;;12.55;3.63;;;;;;;;;;5142179;27;20039;-62
2023/03/25 10:22:01;;;;;;;12.82;3.00;;;;;;;;;;5147674;27;20030;-62
2023/03/25 10:24:33;;;;;;;12.73;2.55;;;;;;;;;;5139675;27;20051;-62
2023/03/25 10:27:09;;;;;;;16.08;3.25;;;;;;;;;;5133725;27;20054;-62
2023/03/25 10:29:41;;;;;;;13.77;3.10;;;;;;;;;;5136992;27;20128;-62
2023/03/25 10:32:15;;;;;;;10.10;2.80;;;;;;;;;;5147813;27;20092;-62
2023/03/25 10:34:46;;;;;;;8.98;2.67;;;;;;;;;;5139496;27;20462;-62
2023/03/25 10:37:16;;;;;;;8.25;2.78;;;;;;;;;;5137458;27;20129;-62
2023/03/25 10:39:46;;;;;;;16.65;3.45;;;;;;;;;;5134537;27;20398;-62
2023/03/25 10:42:21;;;;;;;16.73;2.95;;;;;;;;;;5126731;27;20105;-63
2023/03/25 10:44:47;;;;;;;10.25;2.85;;;;;;;;;;5140654;27;20051;-61
2023/03/25 10:47:16;;;;;;;12.50;3.00;;;;;;;;;;5140864;27;20126;-63
2023/03/25 10:49:45;;;;;;;9.32;2.67;;;;;;;;;;5139870;27;20039;-62
2023/03/25 10:52:11;;;;;;;13.23;2.55;;;;;;;;;;5133124;27;20603;-62
2023/03/25 10:54:41;;;;;;;9.10;2.88;;;;;;;;;;5132804;27;20050;-62
2023/03/25 10:57:09;;;;;;;11.18;1.98;;;;;;;;;;5131096;27;20043;-62
2023/03/25 10:59:42;;;;;;;14.55;3.25;;;;;;;;;;5135158;27;20401;-62
2023/03/25 11:02:13;;;;;;;13.73;3.00;;;;;;;;;;5134762;27;20050;-63
2023/03/25 11:04:42;;;;;;;11.88;3.17;;;;;;;;;;5137398;27;20038;-63
2023/03/25 11:07:41;;;;;;;10.07;2.65;;;;;;;;;;5122930;27;20043;-62
2023/03/25 11:10:13;;;;;;;12.73;3.08;;;;;;;;;;5065329;27;20674;-62
2023/03/25 11:12:42;;;;;;;;;;;;;;;;;;5123133;27;20042;-62
2023/03/25 11:15:13;;;;;;;11.57;2.38;;;;;;;;;;5121595;27;20262;-61
2023/03/25 11:17:39;;;;;;;12.60;3.10;;;;;;;;;;5122320;27;20453;-62
2023/03/25 11:20:09;;;;;;;12.55;3.38;;;;;;;;;;5121905;27;20403;-63
2023/03/25 11:22:36;;;;;;;14.57;3.20;;;;;;;;;;5123555;27;20087;-63
2023/03/25 11:25:05;;;;;;;6.50;2.65;;;;;;;;;;5126092;27;20043;-62
2023/03/25 11:27:37;;;;;;;14.13;2.88;;;;;;;;;;5126277;27;20110;-60
2023/03/25 11:30:05;;;;;;;12.15;2.42;;;;;;;;;;5125209;27;20134;-62
2023/03/25 11:32:33;;;;;;;8.98;1.98;;;;;;;;;;5125755;27;20602;-62
2023/03/25 11:35:02;;;;;;;10.50;2.80;;;;;;;;;;5106472;27;20039;-62
2023/03/25 11:37:32;;;;;;;5.88;1.52;;;;;;;;;;5125931;27;20383;-62
2023/03/25 11:40:03;;;;;;;8.93;2.58;;;;;;;;;;5125433;27;20039;-63
2023/03/25 11:42:35;;;;;;;13.93;2.78;;;;;;;;;;5125628;27;20588;-63
2023/03/25 11:45:02;;;;;;;10.70;2.97;;;;;;;;;;5126600;27;20058;-62
2023/03/25 11:47:36;;;;;;;13.20;2.50;;;;;;;;;;5125994;27;20277;-62
2023/03/25 11:50:02;;;;;;;9.63;2.78;;;;;;;;;;5125395;27;20075;-62
2023/03/25 11:52:42;;;;;;;7.35;1.95;;;;;;;;;;5126060;27;20050;-63
2023/03/25 11:55:15;;;;;;;9.43;2.85;;;;;;;;;;5125150;27;20125;-62
2023/03/25 11:57:41;;;;;;;10.60;2.28;;;;;;;;;;5125304;28;20045;-62
2023/03/25 12:00:32;;;;;;;9.57;2.85;;;;;;;;;;5125568;27;20049;-63
2023/03/25 12:03:00;;;;;;;10.75;2.40;;;;;;;;;;5113371;28;20051;-62
2023/03/25 12:05:26;;;;;;;7.68;1.98;;;;;;;;;;5125339;28;20043;-62
2023/03/25 12:07:59;;;;;;;8.82;2.80;;;;;;;;;;5125563;28;20043;-63
2023/03/25 12:10:31;;;;;;;7.20;2.15;;;;;;;;;;5124547;28;20477;-62
2023/03/25 12:13:08;;;;;;;9.13;2.33;;;;;;;;;;5125490;28;20051;-62
2023/03/25 12:15:34;;;;;;;8.00;1.95;;;;;;;;;;5125827;28;20042;-62
2023/03/25 12:18:06;;;;;;;11.35;2.78;;;;;;;;;;5124872;28;20165;-61
2023/03/25 12:20:40;;;;;;;10.15;2.53;;;;;;;;;;5126119;28;20115;-62
2023/03/25 12:23:22;;;;;;;8.50;2.03;;;;;;;;;;5125239;28;20057;-62
2023/03/25 12:25:54;;;;;;;12.50;2.72;;;;;;;;;;5130479;27;20739;-62
2023/03/25 12:28:38;;;;;;;4.50;2.00;;;;;;;;;;5147545;27;20054;-62
2023/03/25 12:31:16;;;;;;;11.45;2.67;;;;;;;;;;5116173;27;20096;-61
2023/03/25 12:33:42;;;;;;;12.13;2.60;;;;;;;;;;5126571;27;20047;-63
2023/03/25 12:36:17;;;;;;;12.02;3.05;;;;;;;;;;5137218;27;20043;-61
2023/03/25 12:38:44;;;;;;;13.70;2.92;;;;;;;;;;5130420;27;20139;-62
2023/03/25 12:41:34;;;;;;;7.05;1.63;;;;;;;;;;5133261;27;20497;-62
2023/03/25 12:44:07;;;;;;;5.70;2.17;;;;;;;;;;5140847;27;20064;-62
2023/03/25 12:46:57;;;;;;;6.90;2.13;;;;;;;;;;5147861;27;20701;-62
2023/03/25 12:49:29;;;;;;;8.75;2.08;;;;;;;;;;5142924;27;20077;-62
2023/03/25 12:52:10;;;;;;;8.80;2.45;;;;;;;;;;5143389;27;20060;-62
2023/03/25 12:54:58;;;;;;;7.18;2.20;;;;;;;;;;5136311;27;20397;-61
2023/03/25 12:57:42;;;;;;;12.38;2.22;;;;;;;;;;5152731;27;20125;-62
2023/03/25 13:00:08;;;;;;;6.55;2.00;;;;;;;;;;5137824;27;20040;-62
2023/03/25 13:02:53;;;;;;;9.38;2.20;;;;;;;;;;5109741;27;20511;-62
2023/03/25 13:05:21;;;;;;;5.60;1.48;;;;;;;;;;5131879;27;20475;-61
2023/03/25 13:07:54;;;;;;;9.88;2.53;;;;;;;;;;5135281;27;20122;-62
2023/03/25 13:10:21;;;;;;;10.35;1.83;;;;;;;;;;5128841;27;20066;-62
2023/03/25 13:12:49;;;;;;;9.05;2.28;;;;;;;;;;5124290;27;20054;-62
2023/03/25 13:15:26;;;;;;;7.03;2.00;;;;;;;;;;5128442;27;20134;-62
2023/03/25 13:18:13;;;;;;;6.82;2.55;;;;;;;;;;5133114;27;20524;-62
2023/03/25 13:20:45;;;;;;;10.02;2.40;;;;;;;;;;5131097;27;20594;-62
2023/03/25 13:23:16;;;;;;;4.45;2.00;;;;;;;;;;5128410;27;20135;-62
2023/03/25 13:25:42;;;;;;;12.20;2.50;;;;;;;;;;5129638;27;20047;-62
2023/03/25 13:28:10;;;;;;;7.07;1.73;;;;;;;;;;5137185;27;20312;-62
2023/03/25 13:30:38;;;;;;;8.95;2.30;;;;;;;;;;5151327;27;20087;-61
2023/03/25 13:33:12;;;;;;;10.98;2.15;;;;;;;;;;5154666;27;20124;-62
2023/03/25 13:35:52;;;;;;;5.25;1.23;;;;;;;;;;5157593;27;20050;-62
2023/03/25 13:38:27;;;;;;;4.93;1.63;;;;;;;;;;5139691;27;20031;-62
2023/03/25 13:41:07;;;;;;;5.95;1.63;;;;;;;;;;5130650;27;20070;-62
2023/03/25 13:43:45;;;;;;;7.05;2.42;;;;;;;;;;5136822;27;20043;-62
2023/03/25 13:46:13;;;;;;;6.15;1.90;;;;;;;;;;5135623;27;20047;-62
2023/03/25 13:48:41;;;;;;;4.03;1.88;;;;;;;;;;5128414;27;20080;-62
2023/03/25 13:51:08;;;;;;;3.83;0.90;;;;;;;;;;5131192;27;20099;-61
2023/03/25 13:53:45;;;;;;;8.50;2.00;;;;;;;;;;5128613;27;20050;-62
2023/03/25 13:56:35;;;;;;;6.50;2.08;;;;;;;;;;5131731;27;20088;-61
2023/03/25 13:59:09;;;;;;;6.60;1.30;;;;;;;;;;5092804;27;20803;-62
2023/03/25 14:01:35;;;;;;;6.72;1.92;;;;;;;;;;5131798;27;20130;-61
2023/03/25 14:04:15;;;;;;;6.57;1.90;;;;;;;;;;5129683;27;20035;-62
2023/03/25 14:06:53;;;;;;;6.88;1.48;;;;;;;;;;5144691;27;20050;-62
2023/03/25 14:09:22;;;;;;;5.38;1.75;;;;;;;;;;5127510;27;20585;-61
2023/03/25 14:11:53;;;;;;;8.27;2.42;;;;;;;;;;5134079;27;20060;-62
2023/03/25 14:14:21;;;;;;;5.85;2.08;;;;;;;;;;5130123;27;20351;-62
2023/03/25 14:16:49;;;;;;;4.53;1.70;;;;;;;;;;5128124;27;20045;-62
2023/03/25 14:19:38;;;;;;;5.40;1.42;;;;;;;;;;5133836;27;20061;-62
2023/03/25 14:22:10;;;;;;;8.18;2.15;;;;;;;;;;5134160;27;20038;-61
2023/03/25 14:24:36;;;;;;;7.82;1.92;;;;;;;;;;5137923;27;20047;-62
2023/03/25 14:27:04;;;;;;;6.78;2.17;;;;;;;;;;5131105;27;20122;-62
2023/03/25 14:29:40;;;;;;;9.85;2.15;;;;;;;;;;5108562;27;20043;-63
2023/03/25 14:32:15;;;;;;;4.13;1.58;;;;;;;;;;5130399;27;20051;-61
2023/03/25 14:34:42;;;;;;;13.70;2.38;;;;;;;;;;5126135;27;20170;-62
2023/03/25 14:37:08;;;;;;;13.40;2.70;;;;;;;;;;5134234;27;20643;-62
2023/03/25 14:39:34;;;;;;;10.95;2.35;;;;;;;;;;5134498;27;20086;-63
2023/03/25 14:42:00;;;;;;;9.00;2.47;;;;;;;;;;5131708;27;20035;-62
2023/03/25 14:44:28;;;;;;;11.70;2.80;;;;;;;;;;5132019;27;20144;-62
2023/03/25 14:47:01;;;;;;;11.52;2.20;;;;;;;;;;5136082;27;20058;-62
2023/03/25 14:49:49;;;;;;;9.82;1.80;;;;;;;;;;5126941;27;20045;-63